sensor_id;sensor_type;location;lat;lon;timestamp;temperature;humidity
67141;DHT22;54058;52.010;5.546;2023-02-04T00:01:34;9.40;89.30
67141;DHT22;54058;52.010;5.546;2023-02-04T00:04:00;9.40;89.30
67141;DHT22;54058;52.010;5.546;2023-02-04T00:06:26;9.40;89.30
67141;DHT22;54058;52.010;5.546;2023-02-04T00:08:52;9.40;89.20
67141;DHT22;54058;52.010;5.546;2023-02-04T00:11:18;9.40;89.20
67141;DHT22;54058;52.010;5.546;2023-02-04T00:13:43;9.40;89.40
67141;DHT22;54058;52.010;5.546;2023-02-04T00:16:09;9.40;89.30
67141;DHT22;54058;52.010;5.546;2023-02-04T00:18:34;9.40;89.30
67141;DHT22;54058;52.010;5.546;2023-02-04T00:21:00;9.40;89.40
67141;DHT22;54058;52.010;5.546;2023-02-04T00:23:26;9.40;89.40
67141;DHT22;54058;52.010;5.546;2023-02-04T00:25:51;9.40;89.40
67141;DHT22;54058;52.010;5.546;2023-02-04T00:28:17;9.30;89.30
67141;DHT22;54058;52.010;5.546;2023-02-04T00:30:43;9.30;89.30
67141;DHT22;54058;52.010;5.546;2023-02-04T00:33:09;9.20;89.90
67141;DHT22;54058;52.010;5.546;2023-02-04T00:35:34;9.20;89.40
67141;DHT22;54058;52.010;5.546;2023-02-04T00:38:02;9.20;89.50
67141;DHT22;54058;52.010;5.546;2023-02-04T00:40:27;9.20;89.30
67141;DHT22;54058;52.010;5.546;2023-02-04T00:42:53;9.20;89.40
67141;DHT22;54058;52.010;5.546;2023-02-04T00:45:19;9.20;89.40
67141;DHT22;54058;52.010;5.546;2023-02-04T00:47:44;9.20;89.40
67141;DHT22;54058;52.010;5.546;2023-02-04T00:50:10;9.20;89.30
67141;DHT22;54058;52.010;5.546;2023-02-04T00:52:36;9.10;89.10
67141;DHT22;54058;52.010;5.546;2023-02-04T00:55:01;9.10;89.40
67141;DHT22;54058;52.010;5.546;2023-02-04T00:57:27;9.10;89.50
67141;DHT22;54058;52.010;5.546;2023-02-04T00:59:52;9.00;89.50
67141;DHT22;54058;52.010;5.546;2023-02-04T01:02:18;9.00;89.60
67141;DHT22;54058;52.010;5.546;2023-02-04T01:04:44;9.00;89.60
67141;DHT22;54058;52.010;5.546;2023-02-04T01:07:09;8.90;89.60
67141;DHT22;54058;52.010;5.546;2023-02-04T01:09:35;8.90;89.50
67141;DHT22;54058;52.010;5.546;2023-02-04T01:12:00;8.90;89.50
67141;DHT22;54058;52.010;5.546;2023-02-04T01:14:26;8.90;89.40
67141;DHT22;54058;52.010;5.546;2023-02-04T01:16:52;8.90;89.50
67141;DHT22;54058;52.010;5.546;2023-02-04T01:19:17;8.80;89.40
67141;DHT22;54058;52.010;5.546;2023-02-04T01:21:45;8.80;89.50
67141;DHT22;54058;52.010;5.546;2023-02-04T01:24:10;8.70;88.90
67141;DHT22;54058;52.010;5.546;2023-02-04T01:26:36;8.60;89.40
67141;DHT22;54058;52.010;5.546;2023-02-04T01:29:02;8.60;89.50
67141;DHT22;54058;52.010;5.546;2023-02-04T01:31:27;8.60;89.50
67141;DHT22;54058;52.010;5.546;2023-02-04T01:33:55;8.60;89.60
67141;DHT22;54058;52.010;5.546;2023-02-04T01:36:21;8.60;89.80
67141;DHT22;54058;52.010;5.546;2023-02-04T01:38:47;8.50;89.80
67141;DHT22;54058;52.010;5.546;2023-02-04T01:41:14;8.60;90.00
67141;DHT22;54058;52.010;5.546;2023-02-04T01:43:40;8.60;90.00
67141;DHT22;54058;52.010;5.546;2023-02-04T01:46:06;8.60;90.00
67141;DHT22;54058;52.010;5.546;2023-02-04T01:48:32;8.60;90.00
67141;DHT22;54058;52.010;5.546;2023-02-04T01:51:06;8.60;90.00
67141;DHT22;54058;52.010;5.546;2023-02-04T01:53:32;8.50;89.90
67141;DHT22;54058;52.010;5.546;2023-02-04T01:55:59;8.50;89.90
67141;DHT22;54058;52.010;5.546;2023-02-04T01:58:25;8.50;90.00
67141;DHT22;54058;52.010;5.546;2023-02-04T02:00:51;8.40;90.00
67141;DHT22;54058;52.010;5.546;2023-02-04T02:03:17;8.40;90.10
67141;DHT22;54058;52.010;5.546;2023-02-04T02:05:47;8.40;90.10
67141;DHT22;54058;52.010;5.546;2023-02-04T02:08:14;8.40;90.10
67141;DHT22;54058;52.010;5.546;2023-02-04T02:10:42;8.50;90.20
67141;DHT22;54058;52.010;5.546;2023-02-04T02:13:11;8.50;90.20
67141;DHT22;54058;52.010;5.546;2023-02-04T02:15:38;8.50;90.20
67141;DHT22;54058;52.010;5.546;2023-02-04T02:18:04;8.40;90.20
67141;DHT22;54058;52.010;5.546;2023-02-04T02:20:31;8.40;90.30
67141;DHT22;54058;52.010;5.546;2023-02-04T02:23:24;8.40;90.30
67141;DHT22;54058;52.010;5.546;2023-02-04T02:25:51;8.50;90.30
67141;DHT22;54058;52.010;5.546;2023-02-04T02:28:19;8.50;90.30
67141;DHT22;54058;52.010;5.546;2023-02-04T02:30:46;8.50;90.30
67141;DHT22;54058;52.010;5.546;2023-02-04T02:33:15;8.50;90.30
67141;DHT22;54058;52.010;5.546;2023-02-04T02:35:42;8.50;90.30
67141;DHT22;54058;52.010;5.546;2023-02-04T02:38:10;8.40;90.20
67141;DHT22;54058;52.010;5.546;2023-02-04T02:40:36;8.40;90.30
67141;DHT22;54058;52.010;5.546;2023-02-04T02:43:03;8.40;90.30
67141;DHT22;54058;52.010;5.546;2023-02-04T02:45:30;8.40;90.40
67141;DHT22;54058;52.010;5.546;2023-02-04T02:47:57;8.30;90.30
67141;DHT22;54058;52.010;5.546;2023-02-04T02:50:24;8.30;90.40
67141;DHT22;54058;52.010;5.546;2023-02-04T02:52:51;8.20;90.40
67141;DHT22;54058;52.010;5.546;2023-02-04T02:55:20;8.20;90.40
67141;DHT22;54058;52.010;5.546;2023-02-04T02:57:48;8.30;90.40
67141;DHT22;54058;52.010;5.546;2023-02-04T03:00:16;8.20;90.30
67141;DHT22;54058;52.010;5.546;2023-02-04T03:02:42;8.20;90.20
67141;DHT22;54058;52.010;5.546;2023-02-04T03:05:09;8.20;90.20
67141;DHT22;54058;52.010;5.546;2023-02-04T03:07:35;8.10;90.20
67141;DHT22;54058;52.010;5.546;2023-02-04T03:10:01;8.00;90.20
67141;DHT22;54058;52.010;5.546;2023-02-04T03:12:27;7.90;90.20
67141;DHT22;54058;52.010;5.546;2023-02-04T03:14:53;7.90;90.30
67141;DHT22;54058;52.010;5.546;2023-02-04T03:17:19;7.80;90.60
67141;DHT22;54058;52.010;5.546;2023-02-04T03:19:45;7.80;90.30
67141;DHT22;54058;52.010;5.546;2023-02-04T03:22:10;7.80;90.30
67141;DHT22;54058;52.010;5.546;2023-02-04T03:24:36;7.80;90.40
67141;DHT22;54058;52.010;5.546;2023-02-04T03:27:02;7.80;90.40
67141;DHT22;54058;52.010;5.546;2023-02-04T03:29:28;7.80;90.40
67141;DHT22;54058;52.010;5.546;2023-02-04T03:31:53;7.80;90.40
67141;DHT22;54058;52.010;5.546;2023-02-04T03:34:24;7.80;90.40
67141;DHT22;54058;52.010;5.546;2023-02-04T03:36:50;7.80;90.50
67141;DHT22;54058;52.010;5.546;2023-02-04T03:39:15;7.80;90.50
67141;DHT22;54058;52.010;5.546;2023-02-04T03:41:41;7.80;90.50
67141;DHT22;54058;52.010;5.546;2023-02-04T03:44:07;7.80;90.50
67141;DHT22;54058;52.010;5.546;2023-02-04T03:46:32;7.70;90.50
67141;DHT22;54058;52.010;5.546;2023-02-04T03:48:58;7.70;90.60
67141;DHT22;54058;52.010;5.546;2023-02-04T03:51:23;7.70;90.50
67141;DHT22;54058;52.010;5.546;2023-02-04T03:53:49;7.70;90.50
67141;DHT22;54058;52.010;5.546;2023-02-04T03:56:15;7.70;90.50
67141;DHT22;54058;52.010;5.546;2023-02-04T03:58:40;7.70;90.50
67141;DHT22;54058;52.010;5.546;2023-02-04T04:01:06;7.70;90.50
67141;DHT22;54058;52.010;5.546;2023-02-04T04:03:31;7.70;90.50
67141;DHT22;54058;52.010;5.546;2023-02-04T04:05:57;7.70;90.50
67141;DHT22;54058;52.010;5.546;2023-02-04T04:08:23;7.70;90.50
67141;DHT22;54058;52.010;5.546;2023-02-04T04:10:49;7.70;90.50
67141;DHT22;54058;52.010;5.546;2023-02-04T04:13:15;7.60;90.50
67141;DHT22;54058;52.010;5.546;2023-02-04T04:15:40;7.60;90.40
67141;DHT22;54058;52.010;5.546;2023-02-04T04:18:06;7.60;90.40
67141;DHT22;54058;52.010;5.546;2023-02-04T04:20:32;7.50;90.50
67141;DHT22;54058;52.010;5.546;2023-02-04T04:22:57;7.60;90.60
67141;DHT22;54058;52.010;5.546;2023-02-04T04:25:23;7.60;90.60
67141;DHT22;54058;52.010;5.546;2023-02-04T04:27:48;7.60;90.60
67141;DHT22;54058;52.010;5.546;2023-02-04T04:30:14;7.60;90.70
67141;DHT22;54058;52.010;5.546;2023-02-04T04:32:40;7.60;90.80
67141;DHT22;54058;52.010;5.546;2023-02-04T04:35:05;7.70;90.80
67141;DHT22;54058;52.010;5.546;2023-02-04T04:37:31;7.70;90.80
67141;DHT22;54058;52.010;5.546;2023-02-04T04:39:58;7.70;90.80
67141;DHT22;54058;52.010;5.546;2023-02-04T04:42:25;7.70;90.90
67141;DHT22;54058;52.010;5.546;2023-02-04T04:44:51;7.70;90.80
67141;DHT22;54058;52.010;5.546;2023-02-04T04:47:17;7.70;90.80
67141;DHT22;54058;52.010;5.546;2023-02-04T04:49:42;7.70;91.00
67141;DHT22;54058;52.010;5.546;2023-02-04T04:52:08;7.70;90.80
67141;DHT22;54058;52.010;5.546;2023-02-04T04:54:33;7.70;90.80
67141;DHT22;54058;52.010;5.546;2023-02-04T04:56:59;7.60;90.70
67141;DHT22;54058;52.010;5.546;2023-02-04T04:59:24;7.70;90.90
67141;DHT22;54058;52.010;5.546;2023-02-04T05:01:50;7.60;90.60
67141;DHT22;54058;52.010;5.546;2023-02-04T05:04:16;7.60;90.60
67141;DHT22;54058;52.010;5.546;2023-02-04T05:06:41;7.60;90.50
67141;DHT22;54058;52.010;5.546;2023-02-04T05:09:07;7.40;90.50
67141;DHT22;54058;52.010;5.546;2023-02-04T05:11:34;7.40;90.60
67141;DHT22;54058;52.010;5.546;2023-02-04T05:13:59;7.30;90.60
67141;DHT22;54058;52.010;5.546;2023-02-04T05:16:25;7.30;90.90
67141;DHT22;54058;52.010;5.546;2023-02-04T05:18:50;7.30;90.70
67141;DHT22;54058;52.010;5.546;2023-02-04T05:21:16;7.30;90.70
67141;DHT22;54058;52.010;5.546;2023-02-04T05:23:42;7.10;90.70
67141;DHT22;54058;52.010;5.546;2023-02-04T05:26:07;7.10;90.80
67141;DHT22;54058;52.010;5.546;2023-02-04T05:28:33;7.20;90.90
67141;DHT22;54058;52.010;5.546;2023-02-04T05:30:59;7.20;91.00
67141;DHT22;54058;52.010;5.546;2023-02-04T05:33:24;7.20;91.00
67141;DHT22;54058;52.010;5.546;2023-02-04T05:35:50;7.30;91.00
67141;DHT22;54058;52.010;5.546;2023-02-04T05:38:16;7.30;91.00
67141;DHT22;54058;52.010;5.546;2023-02-04T05:40:41;7.40;91.00
67141;DHT22;54058;52.010;5.546;2023-02-04T05:43:07;7.30;90.90
67141;DHT22;54058;52.010;5.546;2023-02-04T05:45:33;7.20;91.10
67141;DHT22;54058;52.010;5.546;2023-02-04T05:47:58;7.30;91.20
67141;DHT22;54058;52.010;5.546;2023-02-04T05:50:24;7.40;91.20
67141;DHT22;54058;52.010;5.546;2023-02-04T05:52:50;7.40;91.20
67141;DHT22;54058;52.010;5.546;2023-02-04T05:55:15;7.40;91.10
67141;DHT22;54058;52.010;5.546;2023-02-04T05:57:41;7.40;91.10
67141;DHT22;54058;52.010;5.546;2023-02-04T06:00:07;7.40;91.20
67141;DHT22;54058;52.010;5.546;2023-02-04T06:02:33;7.40;91.20
67141;DHT22;54058;52.010;5.546;2023-02-04T06:04:59;7.50;91.20
67141;DHT22;54058;52.010;5.546;2023-02-04T06:07:24;7.50;91.20
67141;DHT22;54058;52.010;5.546;2023-02-04T06:09:50;7.40;91.20
67141;DHT22;54058;52.010;5.546;2023-02-04T06:12:15;7.30;91.20
67141;DHT22;54058;52.010;5.546;2023-02-04T06:14:41;7.30;91.30
67141;DHT22;54058;52.010;5.546;2023-02-04T06:17:07;7.30;91.40
67141;DHT22;54058;52.010;5.546;2023-02-04T06:19:32;7.50;91.50
67141;DHT22;54058;52.010;5.546;2023-02-04T06:21:58;7.50;91.40
67141;DHT22;54058;52.010;5.546;2023-02-04T06:24:23;7.60;91.50
67141;DHT22;54058;52.010;5.546;2023-02-04T06:26:49;7.60;91.40
67141;DHT22;54058;52.010;5.546;2023-02-04T06:29:14;7.70;91.40
67141;DHT22;54058;52.010;5.546;2023-02-04T06:31:40;7.70;91.40
67141;DHT22;54058;52.010;5.546;2023-02-04T06:34:06;7.70;91.30
67141;DHT22;54058;52.010;5.546;2023-02-04T06:36:31;7.70;91.30
67141;DHT22;54058;52.010;5.546;2023-02-04T06:38:57;7.70;91.40
67141;DHT22;54058;52.010;5.546;2023-02-04T06:41:23;7.70;91.30
67141;DHT22;54058;52.010;5.546;2023-02-04T06:43:48;7.70;91.40
67141;DHT22;54058;52.010;5.546;2023-02-04T06:46:14;7.70;91.40
67141;DHT22;54058;52.010;5.546;2023-02-04T06:48:40;7.70;91.40
67141;DHT22;54058;52.010;5.546;2023-02-04T06:51:05;7.80;91.50
67141;DHT22;54058;52.010;5.546;2023-02-04T06:53:31;7.80;91.40
67141;DHT22;54058;52.010;5.546;2023-02-04T06:55:57;7.80;91.50
67141;DHT22;54058;52.010;5.546;2023-02-04T06:58:22;7.80;91.40
67141;DHT22;54058;52.010;5.546;2023-02-04T07:00:48;7.80;91.40
67141;DHT22;54058;52.010;5.546;2023-02-04T07:03:13;7.80;91.40
67141;DHT22;54058;52.010;5.546;2023-02-04T07:05:39;7.90;91.50
67141;DHT22;54058;52.010;5.546;2023-02-04T07:08:05;7.90;91.40
67141;DHT22;54058;52.010;5.546;2023-02-04T07:10:30;7.90;91.40
67141;DHT22;54058;52.010;5.546;2023-02-04T07:12:57;7.90;91.40
67141;DHT22;54058;52.010;5.546;2023-02-04T07:15:22;7.90;91.40
67141;DHT22;54058;52.010;5.546;2023-02-04T07:17:48;7.90;91.40
67141;DHT22;54058;52.010;5.546;2023-02-04T07:20:14;7.90;91.50
67141;DHT22;54058;52.010;5.546;2023-02-04T07:22:39;7.90;91.50
67141;DHT22;54058;52.010;5.546;2023-02-04T07:25:06;7.90;91.50
67141;DHT22;54058;52.010;5.546;2023-02-04T07:27:32;7.90;91.50
67141;DHT22;54058;52.010;5.546;2023-02-04T07:29:57;7.90;91.50
67141;DHT22;54058;52.010;5.546;2023-02-04T07:32:23;8.00;91.50
67141;DHT22;54058;52.010;5.546;2023-02-04T07:34:49;8.00;91.50
67141;DHT22;54058;52.010;5.546;2023-02-04T07:37:14;7.90;91.50
67141;DHT22;54058;52.010;5.546;2023-02-04T07:39:40;7.90;91.50
67141;DHT22;54058;52.010;5.546;2023-02-04T07:42:05;8.00;91.50
67141;DHT22;54058;52.010;5.546;2023-02-04T07:44:31;8.00;91.60
67141;DHT22;54058;52.010;5.546;2023-02-04T07:46:57;8.00;91.50
67141;DHT22;54058;52.010;5.546;2023-02-04T07:49:22;8.00;91.50
67141;DHT22;54058;52.010;5.546;2023-02-04T07:51:48;8.00;91.50
67141;DHT22;54058;52.010;5.546;2023-02-04T07:54:13;8.00;91.50
67141;DHT22;54058;52.010;5.546;2023-02-04T07:56:39;8.00;91.60
67141;DHT22;54058;52.010;5.546;2023-02-04T07:59:05;8.00;91.60
67141;DHT22;54058;52.010;5.546;2023-02-04T08:01:30;8.10;91.60
67141;DHT22;54058;52.010;5.546;2023-02-04T08:03:56;8.10;91.60
67141;DHT22;54058;52.010;5.546;2023-02-04T08:06:21;8.10;91.60
67141;DHT22;54058;52.010;5.546;2023-02-04T08:08:47;8.10;91.60
67141;DHT22;54058;52.010;5.546;2023-02-04T08:11:13;8.10;91.70
67141;DHT22;54058;52.010;5.546;2023-02-04T08:13:38;8.20;91.70
67141;DHT22;54058;52.010;5.546;2023-02-04T08:16:04;8.20;91.70
67141;DHT22;54058;52.010;5.546;2023-02-04T08:18:30;8.30;91.70
67141;DHT22;54058;52.010;5.546;2023-02-04T08:20:55;8.30;91.70
67141;DHT22;54058;52.010;5.546;2023-02-04T08:23:21;8.40;91.70
67141;DHT22;54058;52.010;5.546;2023-02-04T08:25:47;8.40;91.70
67141;DHT22;54058;52.010;5.546;2023-02-04T08:28:13;8.50;91.70
67141;DHT22;54058;52.010;5.546;2023-02-04T08:30:39;8.50;91.70
67141;DHT22;54058;52.010;5.546;2023-02-04T08:33:04;8.50;91.70
67141;DHT22;54058;52.010;5.546;2023-02-04T08:35:30;8.50;91.70
67141;DHT22;54058;52.010;5.546;2023-02-04T08:37:55;8.50;91.80
67141;DHT22;54058;52.010;5.546;2023-02-04T08:40:21;8.50;91.80
67141;DHT22;54058;52.010;5.546;2023-02-04T08:42:47;8.50;91.80
67141;DHT22;54058;52.010;5.546;2023-02-04T08:45:12;8.60;91.80
67141;DHT22;54058;52.010;5.546;2023-02-04T08:47:38;8.60;91.80
67141;DHT22;54058;52.010;5.546;2023-02-04T08:50:04;8.70;91.80
67141;DHT22;54058;52.010;5.546;2023-02-04T08:52:29;8.70;91.80
67141;DHT22;54058;52.010;5.546;2023-02-04T08:54:55;8.70;91.80
67141;DHT22;54058;52.010;5.546;2023-02-04T08:57:21;8.70;91.80
67141;DHT22;54058;52.010;5.546;2023-02-04T08:59:46;8.70;91.80
67141;DHT22;54058;52.010;5.546;2023-02-04T09:02:12;8.70;91.90
67141;DHT22;54058;52.010;5.546;2023-02-04T09:04:37;8.70;91.90
67141;DHT22;54058;52.010;5.546;2023-02-04T09:07:03;8.70;91.90
67141;DHT22;54058;52.010;5.546;2023-02-04T09:09:29;8.70;92.20
67141;DHT22;54058;52.010;5.546;2023-02-04T09:11:54;8.70;92.00
67141;DHT22;54058;52.010;5.546;2023-02-04T09:14:20;8.90;92.00
67141;DHT22;54058;52.010;5.546;2023-02-04T09:16:45;8.90;92.00
67141;DHT22;54058;52.010;5.546;2023-02-04T09:19:13;9.00;91.90
67141;DHT22;54058;52.010;5.546;2023-02-04T09:21:41;9.00;91.80
67141;DHT22;54058;52.010;5.546;2023-02-04T09:24:06;9.00;91.90
67141;DHT22;54058;52.010;5.546;2023-02-04T09:26:32;9.00;91.90
67141;DHT22;54058;52.010;5.546;2023-02-04T09:28:58;9.00;91.90
67141;DHT22;54058;52.010;5.546;2023-02-04T09:31:23;9.10;91.90
67141;DHT22;54058;52.010;5.546;2023-02-04T09:33:49;9.10;91.90
67141;DHT22;54058;52.010;5.546;2023-02-04T09:36:14;9.20;92.00
67141;DHT22;54058;52.010;5.546;2023-02-04T09:38:40;9.30;92.00
67141;DHT22;54058;52.010;5.546;2023-02-04T09:41:07;9.40;91.90
67141;DHT22;54058;52.010;5.546;2023-02-04T09:43:37;9.40;91.90
67141;DHT22;54058;52.010;5.546;2023-02-04T09:46:04;9.30;91.80
67141;DHT22;54058;52.010;5.546;2023-02-04T09:48:29;9.30;91.90
67141;DHT22;54058;52.010;5.546;2023-02-04T09:51:04;9.40;92.00
67141;DHT22;54058;52.010;5.546;2023-02-04T09:53:30;9.50;92.00
67141;DHT22;54058;52.010;5.546;2023-02-04T09:55:57;9.60;92.00
67141;DHT22;54058;52.010;5.546;2023-02-04T09:58:23;9.60;91.90
67141;DHT22;54058;52.010;5.546;2023-02-04T10:01:14;9.70;91.90
67141;DHT22;54058;52.010;5.546;2023-02-04T10:03:41;9.70;91.60
67141;DHT22;54058;52.010;5.546;2023-02-04T10:06:18;9.70;91.70
67141;DHT22;54058;52.010;5.546;2023-02-04T10:08:46;9.60;91.70
67141;DHT22;54058;52.010;5.546;2023-02-04T10:11:13;9.60;91.70
67141;DHT22;54058;52.010;5.546;2023-02-04T10:13:46;9.70;92.10
67141;DHT22;54058;52.010;5.546;2023-02-04T10:16:23;9.80;91.90
67141;DHT22;54058;52.010;5.546;2023-02-04T10:18:58;9.90;91.80
67141;DHT22;54058;52.010;5.546;2023-02-04T10:21:26;10.00;91.70
67141;DHT22;54058;52.010;5.546;2023-02-04T10:23:57;10.10;91.60
67141;DHT22;54058;52.010;5.546;2023-02-04T10:26:25;10.20;91.50
67141;DHT22;54058;52.010;5.546;2023-02-04T10:29:04;10.20;91.40
67141;DHT22;54058;52.010;5.546;2023-02-04T10:31:35;10.20;91.10
67141;DHT22;54058;52.010;5.546;2023-02-04T10:34:23;10.10;91.10
67141;DHT22;54058;52.010;5.546;2023-02-04T10:36:56;10.10;91.10
67141;DHT22;54058;52.010;5.546;2023-02-04T10:39:27;10.10;91.00
67141;DHT22;54058;52.010;5.546;2023-02-04T10:41:59;10.00;91.10
67141;DHT22;54058;52.010;5.546;2023-02-04T10:44:33;10.00;90.90
67141;DHT22;54058;52.010;5.546;2023-02-04T10:47:04;10.00;91.00
67141;DHT22;54058;52.010;5.546;2023-02-04T10:49:31;9.90;91.00
67141;DHT22;54058;52.010;5.546;2023-02-04T10:51:56;9.90;91.00
67141;DHT22;54058;52.010;5.546;2023-02-04T10:54:26;10.00;90.90
67141;DHT22;54058;52.010;5.546;2023-02-04T10:57:17;10.00;90.90
67141;DHT22;54058;52.010;5.546;2023-02-04T10:59:45;10.10;90.80
67141;DHT22;54058;52.010;5.546;2023-02-04T11:05:13;10.20;90.60
67141;DHT22;54058;52.010;5.546;2023-02-04T11:07:39;10.30;90.60
67141;DHT22;54058;52.010;5.546;2023-02-04T11:10:05;10.40;90.50
67141;DHT22;54058;52.010;5.546;2023-02-04T11:12:39;10.40;90.40
67141;DHT22;54058;52.010;5.546;2023-02-04T11:15:06;10.50;90.60
67141;DHT22;54058;52.010;5.546;2023-02-04T11:17:33;10.60;90.50
67141;DHT22;54058;52.010;5.546;2023-02-04T11:19:59;10.70;90.30
67141;DHT22;54058;52.010;5.546;2023-02-04T11:22:45;10.60;90.20
67141;DHT22;54058;52.010;5.546;2023-02-04T11:25:34;10.60;89.90
67141;DHT22;54058;52.010;5.546;2023-02-04T11:28:00;10.50;90.00
67141;DHT22;54058;52.010;5.546;2023-02-04T11:30:31;10.50;90.20
67141;DHT22;54058;52.010;5.546;2023-02-04T11:33:03;10.40;89.90
67141;DHT22;54058;52.010;5.546;2023-02-04T11:35:29;10.40;90.10
67141;DHT22;54058;52.010;5.546;2023-02-04T11:37:56;10.30;90.20
67141;DHT22;54058;52.010;5.546;2023-02-04T11:42:48;10.30;90.20
67141;DHT22;54058;52.010;5.546;2023-02-04T11:45:21;10.30;90.10
67141;DHT22;54058;52.010;5.546;2023-02-04T11:47:49;10.30;90.10
67141;DHT22;54058;52.010;5.546;2023-02-04T11:52:55;10.30;90.10
67141;DHT22;54058;52.010;5.546;2023-02-04T11:55:21;10.30;90.20
67141;DHT22;54058;52.010;5.546;2023-02-04T11:57:50;10.30;90.10
67141;DHT22;54058;52.010;5.546;2023-02-04T12:00:25;10.30;90.10
67141;DHT22;54058;52.010;5.546;2023-02-04T12:02:58;10.40;90.10
67141;DHT22;54058;52.010;5.546;2023-02-04T12:05:44;10.40;90.10
67141;DHT22;54058;52.010;5.546;2023-02-04T12:11:11;10.60;90.00
67141;DHT22;54058;52.010;5.546;2023-02-04T12:13:48;10.60;89.90
67141;DHT22;54058;52.010;5.546;2023-02-04T12:16:14;10.80;90.00
67141;DHT22;54058;52.010;5.546;2023-02-04T12:18:40;10.80;89.00
67141;DHT22;54058;52.010;5.546;2023-02-04T12:21:06;10.90;90.00
67141;DHT22;54058;52.010;5.546;2023-02-04T12:23:31;10.90;90.00
67141;DHT22;54058;52.010;5.546;2023-02-04T12:25:58;11.10;90.00
67141;DHT22;54058;52.010;5.546;2023-02-04T12:28:24;11.10;90.00
67141;DHT22;54058;52.010;5.546;2023-02-04T12:30:50;11.20;90.00
67141;DHT22;54058;52.010;5.546;2023-02-04T12:33:15;11.30;89.90
67141;DHT22;54058;52.010;5.546;2023-02-04T12:35:41;11.30;89.70
67141;DHT22;54058;52.010;5.546;2023-02-04T12:38:07;11.40;89.70
67141;DHT22;54058;52.010;5.546;2023-02-04T12:40:33;11.40;89.60
67141;DHT22;54058;52.010;5.546;2023-02-04T12:42:59;11.50;90.10
67141;DHT22;54058;52.010;5.546;2023-02-04T12:45:25;11.50;89.70
67141;DHT22;54058;52.010;5.546;2023-02-04T12:47:50;11.50;89.50
67141;DHT22;54058;52.010;5.546;2023-02-04T12:50:17;11.50;89.30
67141;DHT22;54058;52.010;5.546;2023-02-04T12:52:53;11.50;89.40
67141;DHT22;54058;52.010;5.546;2023-02-04T12:55:20;11.40;89.20
67141;DHT22;54058;52.010;5.546;2023-02-04T12:57:46;11.40;89.00
67141;DHT22;54058;52.010;5.546;2023-02-04T13:00:14;11.40;88.60
67141;DHT22;54058;52.010;5.546;2023-02-04T13:02:40;11.40;89.10
67141;DHT22;54058;52.010;5.546;2023-02-04T13:05:07;11.40;89.00
67141;DHT22;54058;52.010;5.546;2023-02-04T13:07:32;11.40;89.00
67141;DHT22;54058;52.010;5.546;2023-02-04T13:09:59;11.40;88.60
67141;DHT22;54058;52.010;5.546;2023-02-04T13:12:24;11.50;89.20
67141;DHT22;54058;52.010;5.546;2023-02-04T13:14:50;11.60;89.30
67141;DHT22;54058;52.010;5.546;2023-02-04T13:17:16;11.60;89.30
67141;DHT22;54058;52.010;5.546;2023-02-04T13:19:42;11.70;89.00
67141;DHT22;54058;52.010;5.546;2023-02-04T13:22:07;11.70;88.80
67141;DHT22;54058;52.010;5.546;2023-02-04T13:24:33;11.80;88.80
67141;DHT22;54058;52.010;5.546;2023-02-04T13:26:59;11.90;88.70
67141;DHT22;54058;52.010;5.546;2023-02-04T13:29:24;11.80;88.20
67141;DHT22;54058;52.010;5.546;2023-02-04T13:31:50;11.80;87.90
67141;DHT22;54058;52.010;5.546;2023-02-04T13:34:16;11.80;87.70
67141;DHT22;54058;52.010;5.546;2023-02-04T13:36:42;11.80;87.80
67141;DHT22;54058;52.010;5.546;2023-02-04T13:39:08;11.90;87.90
67141;DHT22;54058;52.010;5.546;2023-02-04T13:41:34;11.90;87.60
67141;DHT22;54058;52.010;5.546;2023-02-04T13:44:00;11.90;87.70
67141;DHT22;54058;52.010;5.546;2023-02-04T13:46:26;11.80;87.60
67141;DHT22;54058;52.010;5.546;2023-02-04T13:48:52;11.80;87.70
67141;DHT22;54058;52.010;5.546;2023-02-04T13:51:17;11.80;87.50
67141;DHT22;54058;52.010;5.546;2023-02-04T13:53:43;11.70;87.00
67141;DHT22;54058;52.010;5.546;2023-02-04T13:56:09;11.60;86.80
67141;DHT22;54058;52.010;5.546;2023-02-04T13:58:35;11.60;87.20
67141;DHT22;54058;52.010;5.546;2023-02-04T14:01:00;11.60;87.30
67141;DHT22;54058;52.010;5.546;2023-02-04T14:03:27;11.50;87.20
67141;DHT22;54058;52.010;5.546;2023-02-04T14:05:54;11.40;86.80
67141;DHT22;54058;52.010;5.546;2023-02-04T14:08:20;11.30;87.20
67141;DHT22;54058;52.010;5.546;2023-02-04T14:10:46;11.30;87.70
67141;DHT22;54058;52.010;5.546;2023-02-04T14:13:12;11.30;88.10
67141;DHT22;54058;52.010;5.546;2023-02-04T14:15:38;11.30;87.70
67141;DHT22;54058;52.010;5.546;2023-02-04T14:18:06;11.20;87.70
67141;DHT22;54058;52.010;5.546;2023-02-04T14:20:32;11.20;87.60
67141;DHT22;54058;52.010;5.546;2023-02-04T14:22:58;11.20;87.40
67141;DHT22;54058;52.010;5.546;2023-02-04T14:25:24;11.30;87.50
67141;DHT22;54058;52.010;5.546;2023-02-04T14:27:50;11.30;87.50
67141;DHT22;54058;52.010;5.546;2023-02-04T14:30:21;11.20;87.40
67141;DHT22;54058;52.010;5.546;2023-02-04T14:32:47;11.20;87.40
67141;DHT22;54058;52.010;5.546;2023-02-04T14:35:13;11.20;87.30
67141;DHT22;54058;52.010;5.546;2023-02-04T14:37:39;11.20;87.40
67141;DHT22;54058;52.010;5.546;2023-02-04T14:40:06;11.20;87.20
67141;DHT22;54058;52.010;5.546;2023-02-04T14:42:31;11.20;87.20
67141;DHT22;54058;52.010;5.546;2023-02-04T14:44:57;11.20;87.10
67141;DHT22;54058;52.010;5.546;2023-02-04T14:47:23;11.10;86.70
67141;DHT22;54058;52.010;5.546;2023-02-04T14:49:48;11.10;86.70
67141;DHT22;54058;52.010;5.546;2023-02-04T14:52:14;11.00;86.60
67141;DHT22;54058;52.010;5.546;2023-02-04T14:54:41;11.00;86.40
67141;DHT22;54058;52.010;5.546;2023-02-04T14:57:06;11.00;86.30
67141;DHT22;54058;52.010;5.546;2023-02-04T14:59:38;10.90;86.40
67141;DHT22;54058;52.010;5.546;2023-02-04T15:02:05;10.90;86.30
67141;DHT22;54058;52.010;5.546;2023-02-04T15:04:30;10.80;86.10
67141;DHT22;54058;52.010;5.546;2023-02-04T15:06:56;10.90;86.50
67141;DHT22;54058;52.010;5.546;2023-02-04T15:09:23;10.90;86.60
67141;DHT22;54058;52.010;5.546;2023-02-04T15:11:49;10.90;86.50
67141;DHT22;54058;52.010;5.546;2023-02-04T15:14:15;10.90;86.40
67141;DHT22;54058;52.010;5.546;2023-02-04T15:16:40;11.00;86.60
67141;DHT22;54058;52.010;5.546;2023-02-04T15:19:08;11.00;86.50
67141;DHT22;54058;52.010;5.546;2023-02-04T15:21:33;11.00;86.50
67141;DHT22;54058;52.010;5.546;2023-02-04T15:23:59;10.90;86.20
67141;DHT22;54058;52.010;5.546;2023-02-04T15:26:25;10.90;86.20
67141;DHT22;54058;52.010;5.546;2023-02-04T15:28:50;11.00;86.30
67141;DHT22;54058;52.010;5.546;2023-02-04T15:31:16;11.00;86.40
67141;DHT22;54058;52.010;5.546;2023-02-04T15:33:42;11.00;86.30
67141;DHT22;54058;52.010;5.546;2023-02-04T15:36:07;11.00;86.20
67141;DHT22;54058;52.010;5.546;2023-02-04T15:38:33;11.00;86.20
67141;DHT22;54058;52.010;5.546;2023-02-04T15:40:58;11.00;86.20
67141;DHT22;54058;52.010;5.546;2023-02-04T15:43:24;11.00;86.20
67141;DHT22;54058;52.010;5.546;2023-02-04T15:45:50;11.10;86.20
67141;DHT22;54058;52.010;5.546;2023-02-04T15:48:15;11.10;86.30